Time;durP1;ratioP1;P1;durP2;ratioP2;P2;SDS_P1;SDS_P2;PMS_P1;PMS_P2;Temp;Humidity;BMP_temperature;BMP_pressure;BME280_temperature;BME280_humidity;BME280_pressure;Samples;Min_cycle;Max_cycle;Signal;HPM_P1;HPM_P2
2022/09/03 00:01:50;;;;;;;5.50;3.60;;;;;;;11.11;60.13;98720.66;5036897;28;20056;-77
2022/09/03 00:04:27;;;;;;;7.55;4.40;;;;;;;11.07;60.81;98731.38;5031434;28;20033;-76
2022/09/03 00:07:08;;;;;;;7.45;4.18;;;;;;;11.02;60.53;98717.72;5033041;28;20033;-77
2022/09/03 00:09:41;;;;;;;6.40;4.60;;;;;;;11.01;60.41;98722.41;5032797;28;20077;-77
2022/09/03 00:12:25;;;;;;;8.25;4.80;;;;;;;10.97;60.50;98720.56;5033982;28;20040;-76
2022/09/03 00:15:13;;;;;;;6.72;4.20;;;;;;;10.96;60.27;98722.47;5034018;28;20071;-76
2022/09/03 00:17:44;;;;;;;5.18;3.80;;;;;;;10.94;60.48;98718.38;5042159;28;20031;-75
2022/09/03 00:20:23;;;;;;;5.30;3.42;;;;;;;10.93;60.62;98711.25;5036953;28;20028;-76
2022/09/03 00:22:54;;;;;;;6.72;3.28;;;;;;;10.91;60.76;98716.22;5026581;28;20064;-76
2022/09/03 00:25:43;;;;;;;5.10;3.45;;;;;;;10.85;60.42;98719.03;5024792;28;20025;-76
2022/09/03 00:28:19;;;;;;;7.05;3.47;;;;;;;10.84;61.04;98703.66;5029967;28;20122;-77
2022/09/03 00:30:52;;;;;;;6.93;3.45;;;;;;;10.79;60.50;98709.22;5026212;28;20033;-77
2022/09/03 00:33:22;;;;;;;9.25;3.97;;;;;;;10.75;60.43;98708.16;5029358;28;20029;-76
2022/09/03 00:35:53;;;;;;;6.75;3.28;;;;;;;10.74;60.42;98706.53;5023714;28;20060;-77
2022/09/03 00:38:21;;;;;;;6.38;3.00;;;;;;;10.74;60.25;98702.97;5026013;28;20343;-77
2022/09/03 00:41:15;;;;;;;5.93;3.20;;;;;;;10.70;60.82;98692.59;5019796;28;20018;-77
2022/09/03 00:44:13;;;;;;;5.53;2.85;;;;;;;10.72;61.21;98695.84;5025260;28;20065;-76
2022/09/03 00:46:52;;;;;;;3.75;2.58;;;;;;;10.72;60.49;98698.59;5026433;28;20037;-76
2022/09/03 00:49:38;;;;;;;6.60;2.85;;;;;;;10.72;60.71;98678.56;5028296;28;20029;-77
2022/09/03 00:52:22;;;;;;;5.82;2.90;;;;;;;10.71;60.70;98682.41;5024992;28;20091;-76
2022/09/03 00:55:06;;;;;;;5.05;2.88;;;;;;;10.69;61.07;98682.72;5027749;28;20044;-76
2022/09/03 00:57:40;;;;;;;3.85;2.42;;;;;;;10.69;60.56;98690.94;5030197;28;20041;-76
2022/09/03 01:00:14;;;;;;;4.68;3.00;;;;;;;10.67;60.50;98684.94;5010839;28;20030;-76
2022/09/03 01:02:50;;;;;;;4.95;2.65;;;;;;;10.64;61.20;98687.44;5029552;28;20025;-76
2022/09/03 01:05:34;;;;;;;5.43;2.50;;;;;;;10.63;60.83;98688.53;5027091;28;20041;-76
2022/09/03 01:08:32;;;;;;;5.70;3.00;;;;;;;10.58;60.61;98697.66;5028759;28;20475;-75
2022/09/03 01:11:15;;;;;;;4.93;2.63;;;;;;;10.58;60.23;98697.66;5002309;28;20128;-75
2022/09/03 01:14:07;;;;;;;4.50;2.40;;;;;;;10.55;60.15;98699.06;5013273;28;20116;-76
2022/09/03 01:16:52;;;;;;;5.93;2.60;;;;;;;10.55;60.64;98701.78;5027498;28;20033;-76
2022/09/03 01:19:39;;;;;;;4.45;2.67;;;;;;;10.54;61.06;98697.41;5029081;28;20037;-76
2022/09/03 01:22:24;;;;;;;4.18;2.30;;;;;;;10.57;60.27;98696.84;5029380;28;20041;-75
2022/09/03 01:25:14;;;;;;;5.28;2.30;;;;;;;10.55;60.99;98696.31;5033092;28;20391;-75
2022/09/03 01:27:58;;;;;;;5.72;2.28;;;;;;;10.60;60.22;98697.38;5038122;28;20053;-76
2022/09/03 01:30:24;;;;;;;4.10;2.20;;;;;;;10.60;61.08;98698.16;5026725;28;20048;-76
2022/09/03 01:33:27;;;;;;;3.78;2.13;;;;;;;10.60;60.56;98703.66;5028763;28;20030;-76
2022/09/03 01:36:06;;;;;;;5.32;2.40;;;;;;;10.61;60.84;98702.56;5028685;28;20056;-75
2022/09/03 01:38:44;;;;;;;4.25;2.47;;;;;;;10.60;60.38;98700.91;5028416;28;20108;-76
2022/09/03 01:44:28;;;;;;;6.72;2.50;;;;;;;10.59;60.71;98704.75;5022581;28;20601;-77
2022/09/03 01:47:25;;;;;;;4.55;2.58;;;;;;;10.57;60.91;98710.56;5009684;28;20053;-76
2022/09/03 01:50:02;;;;;;;5.32;2.55;;;;;;;10.60;60.74;98708.34;5013471;28;20061;-76
2022/09/03 01:52:45;;;;;;;5.88;2.40;;;;;;;10.57;60.53;98701.50;5009019;28;20088;-77
2022/09/03 01:55:45;;;;;;;3.83;2.05;;;;;;;10.57;60.09;98702.31;5014464;28;20851;-75
2022/09/03 01:58:20;;;;;;;3.05;2.13;;;;;;;10.61;61.05;98702.56;5009225;28;20034;-75
2022/09/03 02:00:51;;;;;;;3.35;2.10;;;;;;;10.64;60.67;98706.63;5010400;28;20022;-76
2022/09/03 02:03:16;;;;;;;4.88;2.00;;;;;;;10.65;60.55;98705.53;5010641;28;20030;-75
2022/09/03 02:05:42;;;;;;;4.03;2.15;;;;;;;10.65;61.34;98703.59;5008795;28;20858;-75
2022/09/03 02:08:09;;;;;;;4.97;2.15;;;;;;;10.66;60.59;98707.97;4989732;28;20044;-75
2022/09/03 02:11:07;;;;;;;4.13;1.80;;;;;;;10.67;60.49;98709.63;5007921;28;20076;-76
2022/09/03 02:13:44;;;;;;;3.08;1.92;;;;;;;10.69;60.42;98709.31;4999743;28;20045;-76
2022/09/03 02:16:18;;;;;;;6.20;2.13;;;;;;;10.70;60.54;98699.97;4987985;28;20014;-76
2022/09/03 02:18:48;;;;;;;4.57;2.28;;;;;;;10.71;60.50;98710.69;5008841;28;20036;-76
2022/09/03 02:21:17;;;;;;;5.28;1.98;;;;;;;10.72;61.03;98709.56;5010527;28;20029;-76
2022/09/03 02:23:44;;;;;;;4.68;2.17;;;;;;;10.72;60.68;98709.56;5010292;28;20116;-76
2022/09/03 02:26:13;;;;;;;4.22;1.98;;;;;;;10.74;59.80;98709.25;5009377;28;20080;-76
2022/09/03 02:28:38;;;;;;;3.50;1.80;;;;;;;10.73;59.94;98707.63;5010611;28;20030;-76
2022/09/03 02:31:04;;;;;;;4.15;2.10;;;;;;;10.72;60.38;98706.00;5010498;28;20025;-75
2022/09/03 02:33:37;;;;;;;4.78;2.40;;;;;;;10.70;60.44;98706.31;5010049;28;20033;-76
2022/09/03 02:36:05;;;;;;;5.35;2.38;;;;;;;10.70;60.21;98703.56;5009941;28;20044;-76
2022/09/03 02:38:31;;;;;;;3.90;2.20;;;;;;;10.68;60.19;98703.03;5010797;28;20471;-76
2022/09/03 02:40:57;;;;;;;4.75;2.10;;;;;;;10.69;60.53;98707.41;5010978;28;20045;-76
2022/09/03 02:43:43;;;;;;;3.67;2.10;;;;;;;10.70;60.45;98710.94;5010089;28;20755;-75
2022/09/03 02:46:16;;;;;;;4.13;2.13;;;;;;;10.70;60.09;98706.31;5008257;28;20155;-75
2022/09/03 02:48:41;;;;;;;4.70;2.30;;;;;;;10.70;59.69;98708.22;5010432;28;20488;-76
2022/09/03 02:51:07;;;;;;;7.00;2.20;;;;;;;10.70;60.45;98714.53;5010683;28;20076;-76
2022/09/03 02:53:32;;;;;;;4.45;2.22;;;;;;;10.69;60.70;98710.16;5007174;28;20464;-75
2022/09/03 02:56:01;;;;;;;4.25;2.40;;;;;;;10.70;60.95;98710.94;5007058;28;20035;-75
2022/09/03 02:58:27;;;;;;;4.38;2.30;;;;;;;10.68;60.81;98707.69;5016429;28;20091;-76
2022/09/03 03:00:54;;;;;;;5.15;2.60;;;;;;;10.67;60.62;98706.88;5026297;28;20029;-75
2022/09/03 03:03:20;;;;;;;4.38;2.20;;;;;;;10.66;60.81;98705.25;5021248;28;20036;-76
2022/09/03 03:05:50;;;;;;;6.85;2.70;;;;;;;10.66;60.28;98702.50;5009054;28;20468;-75
2022/09/03 03:08:20;;;;;;;;;;;;;;;10.65;60.08;98705.53;5028203;28;20033;-75
2022/09/03 03:10:48;;;;;;;5.35;2.60;;;;;;;10.64;60.15;98707.47;5032486;28;19999;-75
2022/09/03 03:13:13;;;;;;;5.40;2.15;;;;;;;10.61;60.01;98709.94;5033985;28;20402;-75
2022/09/03 03:15:39;;;;;;;3.60;2.13;;;;;;;10.58;60.46;98711.34;5032275;28;20088;-75
2022/09/03 03:18:06;;;;;;;3.42;2.20;;;;;;;10.56;60.46;98713.56;5025356;28;20029;-76
2022/09/03 03:20:33;;;;;;;4.63;2.25;;;;;;;10.55;60.44;98709.19;5025904;28;20041;-76
2022/09/03 03:23:02;;;;;;;4.63;2.13;;;;;;;10.51;60.40;98705.38;5027801;28;20064;-75
2022/09/03 03:25:27;;;;;;;6.80;2.50;;;;;;;10.49;60.44;98708.44;5028457;28;20030;-76
2022/09/03 03:27:55;;;;;;;4.82;2.20;;;;;;;10.46;59.86;98708.19;5028604;28;20087;-75
2022/09/03 03:30:22;;;;;;;5.68;2.28;;;;;;;10.43;60.71;98701.38;5031967;28;20034;-76
2022/09/03 03:32:47;;;;;;;5.95;2.38;;;;;;;10.41;59.62;98709.06;5035570;28;20063;-76
2022/09/03 03:35:13;;;;;;;4.97;2.00;;;;;;;10.37;60.21;98699.75;5041772;28;20029;-76
2022/09/03 03:37:38;;;;;;;4.90;2.30;;;;;;;10.34;60.23;98701.16;5036741;28;20029;-76
2022/09/03 03:40:05;;;;;;;4.78;2.35;;;;;;;10.34;60.75;98701.16;5030523;28;20033;-75
2022/09/03 03:42:35;;;;;;;6.63;2.22;;;;;;;10.31;60.04;98706.38;5032388;28;20037;-76
2022/09/03 03:45:01;;;;;;;5.05;2.10;;;;;;;10.26;60.79;98705.31;5050525;28;20033;-75
2022/09/03 03:47:29;;;;;;;5.47;2.50;;;;;;;10.24;60.20;98703.97;5040173;28;20033;-76
2022/09/03 03:49:56;;;;;;;4.18;2.50;;;;;;;10.21;60.75;98702.63;5032411;28;20021;-76
2022/09/03 03:52:21;;;;;;;5.50;2.40;;;;;;;10.18;60.63;98697.75;5028919;28;20041;-75
2022/09/03 03:54:48;;;;;;;4.90;2.47;;;;;;;10.16;60.54;98696.38;5038865;28;20032;-76
2022/09/03 03:57:14;;;;;;;6.15;3.00;;;;;;;10.10;60.67;98701.91;5035016;28;20387;-76
2022/09/03 03:59:40;;;;;;;5.53;3.00;;;;;;;10.06;60.74;98700.03;5028472;28;20024;-76
2022/09/03 04:02:05;;;;;;;7.97;3.40;;;;;;;10.00;60.02;98715.66;5029259;28;20421;-76
2022/09/03 04:04:31;;;;;;;5.20;3.17;;;;;;;9.97;60.59;98710.78;5048144;28;20067;-75
2022/09/03 04:06:56;;;;;;;8.45;3.85;;;;;;;9.94;60.96;98716.84;5047867;28;20039;-75
2022/09/03 04:09:22;;;;;;;9.80;3.58;;;;;;;9.89;60.64;98716.88;5030285;28;20112;-75
2022/09/03 04:11:47;;;;;;;8.43;4.10;;;;;;;9.85;60.88;98713.88;5030569;28;20410;-74
2022/09/03 04:14:12;;;;;;;9.60;4.10;;;;;;;9.83;60.85;98722.38;5046935;28;20356;-75
2022/09/03 04:16:38;;;;;;;15.27;5.20;;;;;;;9.80;60.79;98719.38;5050270;28;20028;-75
2022/09/03 04:19:04;;;;;;;15.60;6.30;;;;;;;9.77;61.44;98720.78;5033317;28;20029;-75
2022/09/03 04:21:30;;;;;;;16.55;6.55;;;;;;;9.75;60.98;98724.91;5047960;28;20021;-76
2022/09/03 04:23:57;;;;;;;18.00;6.82;;;;;;;9.72;60.79;98731.75;5029562;28;20037;-75
2022/09/03 04:26:31;;;;;;;16.10;6.22;;;;;;;9.70;60.97;98724.94;5040625;28;20037;-75
2022/09/03 04:29:03;;;;;;;14.00;5.38;;;;;;;9.66;61.45;98725.50;5041857;28;20120;-75
2022/09/03 04:31:30;;;;;;;13.18;6.03;;;;;;;9.66;61.36;98721.94;5033433;28;20259;-75
2022/09/03 04:33:55;;;;;;;12.93;5.43;;;;;;;9.67;61.42;98721.69;5028361;28;20143;-75
2022/09/03 04:36:24;;;;;;;12.18;5.03;;;;;;;9.67;61.51;98726.31;5030054;28;20480;-75
2022/09/03 04:38:53;;;;;;;10.60;4.75;;;;;;;9.66;61.55;98713.72;5009501;28;20380;-75
2022/09/03 04:41:23;;;;;;;10.75;4.32;;;;;;;9.68;62.08;98723.31;5026863;28;20087;-75
2022/09/03 04:43:50;;;;;;;8.02;4.00;;;;;;;9.72;61.56;98734.50;5026205;28;20117;-75
2022/09/03 04:46:15;;;;;;;9.23;3.65;;;;;;;9.73;62.01;98733.41;5028506;28;20037;-75
2022/09/03 04:48:41;;;;;;;8.82;3.65;;;;;;;9.77;61.75;98733.69;5016312;28;20060;-75
2022/09/03 04:51:13;;;;;;;7.93;3.33;;;;;;;9.80;61.87;98741.28;5026353;28;20079;-75
2022/09/03 04:53:41;;;;;;;9.05;3.63;;;;;;;9.85;61.41;98741.25;5023730;28;20025;-75
2022/09/03 04:56:21;;;;;;;9.23;3.47;;;;;;;9.91;62.19;98739.31;5033121;28;20061;-76
2022/09/03 04:58:48;;;;;;;9.15;3.72;;;;;;;9.97;62.13;98740.94;5023961;28;20044;-75
2022/09/03 05:01:25;;;;;;;6.68;3.05;;;;;;;10.05;62.05;98739.50;5022563;28;20078;-75
2022/09/03 05:03:53;;;;;;;8.75;3.22;;;;;;;10.18;62.15;98743.50;5025503;28;20375;-76
2022/09/03 05:06:19;;;;;;;7.53;2.95;;;;;;;10.27;62.80;98737.09;5026757;28;20040;-76
2022/09/03 05:08:49;;;;;;;7.97;3.33;;;;;;;10.38;62.51;98734.28;5021578;28;20030;-76
2022/09/03 05:11:14;;;;;;;8.30;3.10;;;;;;;10.50;62.55;98734.75;5028680;28;20041;-75
2022/09/03 05:13:40;;;;;;;6.18;2.97;;;;;;;10.64;63.03;98742.28;5026124;28;20175;-77
2022/09/03 05:16:08;;;;;;;7.85;3.20;;;;;;;10.78;63.01;98736.94;5022809;28;20037;-76
2022/09/03 05:18:34;;;;;;;6.82;3.47;;;;;;;10.93;63.29;98746.94;5024005;28;20479;-76
2022/09/03 05:21:06;;;;;;;4.97;2.70;;;;;;;11.07;62.80;98739.63;5027922;28;20032;-76
2022/09/03 05:23:35;;;;;;;4.85;2.75;;;;;;;11.23;63.32;98736.69;5024218;28;20045;-76
2022/09/03 05:26:05;;;;;;;4.95;2.42;;;;;;;11.38;63.48;98738.44;5021373;28;20418;-75
2022/09/03 05:28:31;;;;;;;6.85;3.30;;;;;;;11.54;63.66;98733.53;5027546;28;20479;-77
2022/09/03 05:31:01;;;;;;;6.75;3.20;;;;;;;11.67;63.67;98735.56;5031594;28;20029;-76
2022/09/03 05:33:26;;;;;;;5.95;3.42;;;;;;;11.78;63.70;98730.72;5030850;28;20037;-76
2022/09/03 05:35:53;;;;;;;6.03;4.03;;;;;;;11.93;63.59;98726.94;5011447;28;20083;-76
2022/09/03 05:38:19;;;;;;;7.68;5.30;;;;;;;12.06;63.98;98726.22;5006775;28;20029;-76
2022/09/03 05:40:44;;;;;;;8.25;5.03;;;;;;;12.19;64.16;98727.38;5026641;28;20068;-76
2022/09/03 05:43:10;;;;;;;9.73;4.88;;;;;;;12.33;64.05;98726.59;5029351;28;20456;-76
2022/09/03 05:45:35;;;;;;;10.95;4.93;;;;;;;12.47;63.86;98735.69;5030674;28;20402;-77
2022/09/03 05:48:01;;;;;;;7.88;4.82;;;;;;;12.62;64.19;98736.53;5029157;28;20033;-77
2022/09/03 05:50:27;;;;;;;7.85;4.45;;;;;;;12.73;64.13;98735.25;5013518;28;20034;-77
2022/09/03 05:52:57;;;;;;;9.63;5.10;;;;;;;12.85;64.20;98731.16;5030356;28;20052;-77
2022/09/03 05:55:23;;;;;;;6.75;4.32;;;;;;;12.94;64.20;98726.59;5029921;28;20040;-76
2022/09/03 05:57:51;;;;;;;9.93;4.70;;;;;;;13.03;64.18;98730.25;5028629;28;20026;-77
2022/09/03 06:00:18;;;;;;;8.18;4.35;;;;;;;13.13;64.42;98722.94;5023018;28;20059;-76
2022/09/03 06:02:52;;;;;;;7.82;4.20;;;;;;;13.22;64.25;98723.84;5025314;28;20501;-76
2022/09/03 06:05:18;;;;;;;7.30;3.72;;;;;;;13.34;64.38;98723.31;5036662;28;20028;-76
2022/09/03 06:07:48;;;;;;;7.25;3.95;;;;;;;13.44;64.38;98725.06;5026465;28;20033;-76
2022/09/03 06:10:17;;;;;;;7.47;4.45;;;;;;;13.54;64.28;98722.09;5025689;28;20072;-77
2022/09/03 06:12:44;;;;;;;10.00;4.50;;;;;;;13.61;64.17;98719.72;5025068;28;20067;-77
2022/09/03 06:15:10;;;;;;;8.65;4.35;;;;;;;13.66;64.35;98719.59;5007284;28;20087;-77
2022/09/03 06:17:37;;;;;;;7.05;4.50;;;;;;;13.73;64.18;98716.44;5031080;28;20041;-77
2022/09/03 06:20:03;;;;;;;8.02;4.18;;;;;;;13.81;64.08;98725.88;5015069;28;20113;-77
2022/09/03 06:22:30;;;;;;;8.65;4.22;;;;;;;13.89;63.99;98724.31;5027318;28;20116;-77
2022/09/03 06:24:55;;;;;;;5.95;3.30;;;;;;;13.97;64.30;98729.94;5030842;28;20091;-76
2022/09/03 06:27:21;;;;;;;9.77;4.00;;;;;;;14.02;64.36;98722.66;5011210;28;21714;-76
2022/09/03 06:29:46;;;;;;;9.25;3.67;;;;;;;14.03;63.87;98722.34;5028422;28;20457;-76
2022/09/03 06:32:11;;;;;;;7.95;3.72;;;;;;;14.06;63.98;98726.44;5033007;28;20108;-77
2022/09/03 06:34:37;;;;;;;6.65;3.25;;;;;;;14.10;63.87;98724.66;5030931;28;20032;-77
2022/09/03 06:37:02;;;;;;;7.25;3.38;;;;;;;14.13;63.61;98732.28;5041578;28;20076;-76
2022/09/03 06:39:28;;;;;;;8.95;3.33;;;;;;;14.16;64.02;98723.41;5029368;28;20033;-76
2022/09/03 06:41:53;;;;;;;6.93;3.58;;;;;;;14.21;63.97;98730.75;5031623;28;20026;-76
2022/09/03 06:44:19;;;;;;;7.53;3.42;;;;;;;14.23;63.84;98723.78;5031218;28;20376;-76
2022/09/03 06:46:47;;;;;;;8.80;3.42;;;;;;;14.26;63.86;98738.91;5024464;28;20391;-76
2022/09/03 06:49:13;;;;;;;8.00;3.50;;;;;;;14.29;64.15;98743.75;5020701;28;20551;-75
2022/09/03 06:51:39;;;;;;;6.20;3.10;;;;;;;14.32;64.01;98729.34;5032060;28;20117;-75
2022/09/03 06:54:07;;;;;;;6.63;3.10;;;;;;;14.37;63.93;98736.69;5029880;28;20040;-75
2022/09/03 06:56:34;;;;;;;8.40;3.00;;;;;;;14.41;64.02;98737.69;5028179;28;20029;-76
2022/09/03 06:59:04;;;;;;;7.00;3.00;;;;;;;14.46;63.88;98737.56;5029245;28;20057;-76
2022/09/03 07:01:31;;;;;;;6.90;3.60;;;;;;;14.51;63.76;98734.66;5006685;28;20116;-76
2022/09/03 07:04:01;;;;;;;8.55;3.30;;;;;;;14.56;63.97;98734.53;5029416;28;20039;-76
2022/09/03 07:06:30;;;;;;;7.85;3.25;;;;;;;14.64;63.78;98740.41;5010724;28;20692;-76
2022/09/03 07:08:56;;;;;;;7.75;3.20;;;;;;;14.72;64.04;98736.91;5029107;28;20049;-76
2022/09/03 07:11:25;;;;;;;8.50;3.42;;;;;;;14.81;63.70;98736.97;5024903;28;20050;-75
2022/09/03 07:13:52;;;;;;;6.93;3.10;;;;;;;14.89;63.79;98738.94;5020429;28;20517;-76
2022/09/03 07:16:23;;;;;;;7.35;2.92;;;;;;;14.94;63.54;98726.94;5028136;28;20029;-76
2022/09/03 07:18:49;;;;;;;7.32;3.08;;;;;;;14.96;63.40;98731.03;5024544;28;20049;-76
2022/09/03 07:21:18;;;;;;;8.05;3.05;;;;;;;15.00;63.28;98732.03;5024185;28;20095;-76
2022/09/03 07:23:45;;;;;;;4.72;2.80;;;;;;;15.07;63.36;98725.22;5034281;28;20025;-76
2022/09/03 07:26:14;;;;;;;6.75;3.08;;;;;;;15.12;63.08;98733.34;5037252;28;20021;-77
2022/09/03 07:28:41;;;;;;;8.63;3.00;;;;;;;15.18;63.28;98746.72;5030479;28;20029;-76
2022/09/03 07:31:12;;;;;;;6.95;2.90;;;;;;;15.24;63.41;98747.38;5029772;28;20048;-77
2022/09/03 07:33:38;;;;;;;5.00;2.85;;;;;;;15.32;62.78;98743.00;5024723;28;20525;-77
2022/09/03 07:36:06;;;;;;;5.18;2.75;;;;;;;15.36;63.19;98752.28;5024118;28;20037;-74
2022/09/03 07:38:33;;;;;;;5.97;2.95;;;;;;;15.44;63.00;98754.25;5031009;28;20041;-77
2022/09/03 07:41:00;;;;;;;4.38;2.72;;;;;;;15.53;62.59;98753.47;5011595;28;20087;-77
2022/09/03 07:43:32;;;;;;;5.60;3.00;;;;;;;15.60;63.03;98753.81;5011461;28;20404;-76
2022/09/03 07:45:58;;;;;;;10.27;2.90;;;;;;;15.71;62.68;98743.25;5028156;28;20060;-76
2022/09/03 07:48:24;;;;;;;5.53;2.80;;;;;;;15.82;63.08;98746.50;5017395;28;20065;-78
2022/09/03 07:50:49;;;;;;;4.72;2.67;;;;;;;15.94;62.87;98752.22;5025353;28;20368;-77
2022/09/03 07:53:15;;;;;;;5.90;3.00;;;;;;;16.05;62.44;98745.25;5034170;28;20033;-76
2022/09/03 07:55:42;;;;;;;6.22;2.60;;;;;;;16.18;62.56;98754.50;5027990;28;20529;-78
2022/09/03 07:58:09;;;;;;;4.85;2.50;;;;;;;16.25;62.03;98744.91;5031582;28;20052;-78
2022/09/03 08:00:35;;;;;;;7.72;2.40;;;;;;;16.29;62.20;98752.22;5029143;28;20055;-77
2022/09/03 08:03:04;;;;;;;4.03;2.35;;;;;;;16.36;61.93;98757.25;5025803;28;20492;-77
2022/09/03 08:05:35;;;;;;;3.97;2.67;;;;;;;16.40;61.91;98752.69;5029527;28;20087;-78
2022/09/03 08:08:04;;;;;;;3.67;2.15;;;;;;;16.46;61.85;98758.88;5029421;28;20045;-77
2022/09/03 08:10:34;;;;;;;4.00;2.38;;;;;;;16.46;61.55;98756.91;5029366;28;20045;-77
2022/09/03 08:12:59;;;;;;;3.25;2.33;;;;;;;16.41;61.41;98757.09;5022565;28;20033;-78
2022/09/03 08:15:25;;;;;;;5.25;2.22;;;;;;;16.39;60.95;98764.09;5030486;28;20037;-78
2022/09/03 08:17:51;;;;;;;2.63;1.95;;;;;;;16.35;61.08;98758.38;5029580;28;20495;-78
2022/09/03 08:20:17;;;;;;;3.08;1.98;;;;;;;16.30;60.60;98759.38;5028293;28;20519;-78
2022/09/03 08:22:43;;;;;;;4.30;2.08;;;;;;;16.26;60.74;98757.59;5027758;28;20505;-78
2022/09/03 08:25:08;;;;;;;3.05;1.88;;;;;;;16.21;60.78;98753.88;5027628;28;20056;-80
2022/09/03 08:27:34;;;;;;;2.85;2.10;;;;;;;16.19;60.56;98758.09;5008092;28;20510;-79
2022/09/03 08:30:00;;;;;;;2.22;2.00;;;;;;;16.18;60.31;98751.75;5029388;28;20041;-78
2022/09/03 08:32:26;;;;;;;3.38;1.80;;;;;;;16.20;61.02;98765.25;5029177;28;20041;-77
2022/09/03 08:34:51;;;;;;;2.95;1.63;;;;;;;16.22;60.39;98758.25;5027874;28;20029;-76
2022/09/03 08:37:17;;;;;;;2.92;1.50;;;;;;;16.26;60.68;98752.06;5026988;28;20036;-76
2022/09/03 08:39:43;;;;;;;5.55;4.57;;;;;;;16.27;60.99;98753.69;5027439;28;20030;-78
2022/09/03 08:42:33;;;;;;;2.92;2.15;;;;;;;16.32;60.51;98748.81;5029527;28;20022;-79
2022/09/03 08:45:07;;;;;;;15.15;8.88;;;;;;;16.37;60.46;98750.56;5033385;28;20037;-79
2022/09/03 08:47:44;;;;;;;5.28;3.60;;;;;;;16.42;60.07;98752.38;5030143;28;20025;-81
2022/09/03 08:50:25;;;;;;;3.35;2.50;;;;;;;16.49;60.59;98753.50;5031002;28;20025;-80
2022/09/03 08:53:00;;;;;;;8.88;5.63;;;;;;;16.52;60.66;98750.06;5028724;28;20037;-79
2022/09/03 08:55:35;;;;;;;5.93;4.75;;;;;;;16.58;60.44;98750.69;5027132;28;20414;-79
2022/09/03 08:58:29;;;;;;;1.55;1.30;;;;;;;16.62;60.56;98748.09;5028701;28;20025;-80
2022/09/03 09:01:16;;;;;;;2.22;1.20;;;;;;;16.71;60.57;98748.06;5008047;28;20083;-77
2022/09/03 09:04:02;;;;;;;1.58;1.02;;;;;;;16.91;60.69;98755.66;5022806;28;20123;-76
2022/09/03 09:06:37;;;;;;;1.65;1.20;;;;;;;17.05;60.27;98752.72;5028360;28;20056;-77
2022/09/03 09:09:21;;;;;;;3.75;1.40;;;;;;;17.15;60.41;98748.75;5025950;28;20108;-77
2022/09/03 09:11:58;;;;;;;2.92;1.10;;;;;;;17.27;60.33;98761.91;5009921;28;20034;-78
2022/09/03 09:14:47;;;;;;;1.70;1.02;;;;;;;17.29;59.53;98756.84;5007355;28;20029;-76
2022/09/03 09:17:39;;;;;;;2.72;1.50;;;;;;;17.29;59.19;98756.84;5010904;28;20125;-77
2022/09/03 09:20:10;;;;;;;3.35;1.58;;;;;;;17.32;59.20;98755.38;5007799;28;20065;-77
2022/09/03 09:23:00;;;;;;;2.55;1.73;;;;;;;17.27;58.47;98748.03;5013363;28;20033;-77
2022/09/03 09:25:25;;;;;;;2.50;2.30;;;;;;;17.23;58.76;98747.91;5012436;28;20073;-76
2022/09/03 09:28:11;;;;;;;1.83;1.50;;;;;;;17.22;59.01;98746.28;5012578;28;20022;-77
2022/09/03 09:30:37;;;;;;;7.40;6.60;;;;;;;17.27;58.39;98753.59;5009523;28;20022;-75
2022/09/03 09:33:02;;;;;;;3.13;2.25;;;;;;;17.24;58.25;98749.53;5007653;28;20391;-77
2022/09/03 09:35:29;;;;;;;3.20;2.20;;;;;;;17.24;58.58;98752.31;5014217;28;20036;-77
2022/09/03 09:37:57;;;;;;;5.60;2.75;;;;;;;17.28;58.48;98757.97;5015110;28;20021;-77
2022/09/03 09:40:33;;;;;;;1.70;1.48;;;;;;;17.29;58.45;98761.59;5010651;28;20030;-76
2022/09/03 09:43:12;;;;;;;1.83;1.30;;;;;;;17.32;58.49;98752.59;5008665;28;20096;-77
2022/09/03 09:45:41;;;;;;;1.40;1.30;;;;;;;17.34;58.23;98753.88;5010996;28;20024;-76
2022/09/03 09:48:32;;;;;;;2.30;1.58;;;;;;;17.38;58.15;98765.09;5012254;28;20022;-77
2022/09/03 09:51:17;;;;;;;3.08;2.60;;;;;;;17.42;58.26;98768.81;5008800;28;20032;-76
2022/09/03 09:53:43;;;;;;;1.58;1.48;;;;;;;17.48;58.15;98767.50;5011870;28;20025;-76
2022/09/03 09:56:21;;;;;;;2.92;1.50;;;;;;;17.52;58.01;98773.19;5018346;28;20537;-76
2022/09/03 09:58:47;;;;;;;2.25;1.80;;;;;;;17.53;57.97;98770.06;5010022;28;20408;-76
2022/09/03 10:01:24;;;;;;;3.90;1.80;;;;;;;17.60;58.07;98766.75;5007288;28;20057;-75
2022/09/03 10:03:55;;;;;;;2.25;1.67;;;;;;;17.62;57.80;98752.56;5009139;28;20038;-76
2022/09/03 10:07:12;;;;;;;3.60;1.70;;;;;;;17.64;57.75;98762.19;5008086;28;20132;-75
2022/09/03 10:09:15;;;;;;;3.53;1.80;;;;;;;17.67;57.74;98755.97;5003042;28;20034;-75
2022/09/03 10:12:04;;;;;;;3.65;1.70;;;;;;;17.70;58.04;98758.06;5034323;28;20026;-75
2022/09/03 10:14:34;;;;;;;;;;;;;;;17.81;58.05;98750.16;4982194;28;20168;-76
2022/09/03 10:17:17;;;;;;;3.70;2.03;;;;;;;17.88;58.01;98760.72;5034629;28;19947;-76
2022/09/03 10:22:47;;;;;;;3.95;1.83;;;;;;;18.00;57.94;98749.69;5034651;28;20124;-76
2022/09/03 10:25:15;;;;;;;2.55;1.90;;;;;;;18.07;57.35;98754.72;5027237;28;20033;-75
2022/09/03 10:27:44;;;;;;;2.85;1.77;;;;;;;18.08;57.33;98755.53;5029318;28;20113;-75
2022/09/03 10:30:14;;;;;;;3.63;2.00;;;;;;;18.09;57.15;98757.97;5032166;28;20112;-75
2022/09/03 10:32:58;;;;;;;3.92;2.15;;;;;;;18.07;56.88;98753.91;5027819;28;20108;-75
2022/09/03 10:35:51;;;;;;;3.55;1.90;;;;;;;18.05;56.91;98754.25;5034196;28;20387;-75
2022/09/03 10:38:17;;;;;;;3.45;2.05;;;;;;;18.05;56.93;98747.88;5027146;28;20049;-74
2022/09/03 10:41:13;;;;;;;3.15;2.30;;;;;;;18.06;56.66;98747.56;5025831;28;20087;-74
2022/09/03 10:44:08;;;;;;;3.63;2.40;;;;;;;18.09;56.80;98741.31;5024697;28;20060;-75
2022/09/03 10:46:59;;;;;;;20.65;13.27;;;;;;;18.20;57.05;98744.50;5021146;28;20033;-74
2022/09/03 10:49:35;;;;;;;16.15;11.30;;;;;;;18.32;57.31;98742.94;5029874;28;20044;-73
2022/09/03 10:52:19;;;;;;;5.43;4.00;;;;;;;18.40;57.10;98745.63;5032442;28;20071;-73
2022/09/03 10:55:02;;;;;;;5.90;3.85;;;;;;;18.47;56.89;98741.47;5028832;28;20423;-73
2022/09/03 10:57:42;;;;;;;4.13;3.15;;;;;;;18.47;56.77;98741.47;5029120;28;20037;-74
2022/09/03 11:00:14;;;;;;;3.35;2.35;;;;;;;18.46;56.45;98737.88;5023576;28;20744;-74
2022/09/03 11:02:57;;;;;;;4.78;3.47;;;;;;;18.50;56.80;98736.03;5026681;28;20086;-74
2022/09/03 11:05:37;;;;;;;5.10;3.00;;;;;;;18.59;56.57;98733.16;5019870;28;20049;-73
2022/09/03 11:08:06;;;;;;;;;;;;;;;18.64;56.42;98732.94;5024499;28;20068;-74
2022/09/03 11:10:42;;;;;;;5.00;3.35;;;;;;;18.70;56.57;98736.31;5019736;28;19944;-72
2022/09/03 11:13:11;;;;;;;5.30;2.75;;;;;;;18.81;56.49;98736.69;5023411;28;20112;-73
2022/09/03 11:15:48;;;;;;;6.80;4.43;;;;;;;18.87;56.12;98726.97;5032698;28;20056;-73
2022/09/03 11:18:23;;;;;;;4.85;3.25;;;;;;;18.91;55.79;98733.47;5024690;28;20036;-73
2022/09/03 11:20:53;;;;;;;4.32;2.80;;;;;;;18.94;55.65;98724.44;5021662;28;20124;-73
2022/09/03 11:23:23;;;;;;;3.58;2.42;;;;;;;18.94;55.35;98730.00;5027370;28;20068;-73
2022/09/03 11:25:55;;;;;;;5.13;3.60;;;;;;;18.96;55.35;98729.66;5026502;28;20034;-74
2022/09/03 11:28:36;;;;;;;3.08;2.40;;;;;;;18.95;55.41;98728.03;5028543;28;20041;-73
2022/09/03 11:31:24;;;;;;;2.53;2.03;;;;;;;18.97;54.87;98729.31;5010214;28;20060;-73
2022/09/03 11:34:05;;;;;;;8.43;2.60;;;;;;;19.01;54.97;98721.91;5026510;28;20091;-73
2022/09/03 11:36:37;;;;;;;4.22;2.80;;;;;;;19.03;55.13;98722.38;5023292;28;20034;-73
2022/09/03 11:39:30;;;;;;;4.80;3.00;;;;;;;19.13;55.38;98720.28;5023076;28;20033;-74
2022/09/03 11:41:58;;;;;;;4.20;3.13;;;;;;;19.19;55.09;98718.91;5029654;28;20140;-73
2022/09/03 11:44:35;;;;;;;6.70;5.55;;;;;;;19.21;55.39;98716.59;5025082;28;20033;-73
2022/09/03 11:47:00;;;;;;;6.00;4.78;;;;;;;19.23;55.05;98713.47;5005539;28;20602;-73
2022/09/03 11:49:32;;;;;;;5.47;4.65;;;;;;;19.22;54.79;98704.31;5025839;28;20105;-74
2022/09/03 11:52:08;;;;;;;4.00;2.78;;;;;;;19.26;54.85;98707.19;5032976;28;20037;-74
2022/09/03 11:54:43;;;;;;;5.07;3.92;;;;;;;19.21;54.54;98705.47;5024605;28;20033;-74
2022/09/03 11:57:13;;;;;;;4.68;4.05;;;;;;;19.13;54.01;98710.00;5025765;28;20495;-74
2022/09/03 11:59:41;;;;;;;5.65;3.40;;;;;;;19.04;54.12;98709.31;5025055;28;20067;-74
2022/09/03 12:02:15;;;;;;;6.30;4.68;;;;;;;18.92;53.77;98712.03;5022738;28;20025;-74
2022/09/03 12:05:24;;;;;;;7.10;4.20;;;;;;;18.79;54.13;98714.00;5023301;28;20040;-74